sensor_id;sensor_type;location;lat;lon;timestamp;pressure;altitude;pressure_sealevel;temperature;humidity
67931;BME280;63902;52.000;5.954;2022-09-29T00:00:00;99638.56;;;4.39;99.10
67931;BME280;63902;52.000;5.954;2022-09-29T00:01:00;99641.25;;;4.38;98.85
67931;BME280;63902;52.000;5.954;2022-09-29T00:02:01;99628.34;;;4.32;98.75
67931;BME280;63902;52.000;5.954;2022-09-29T00:03:03;99641.38;;;4.35;99.04
67931;BME280;63902;52.000;5.954;2022-09-29T00:04:03;99634.38;;;4.34;99.02
67931;BME280;63902;52.000;5.954;2022-09-29T00:05:05;99643.19;;;4.33;99.12
67931;BME280;63902;52.000;5.954;2022-09-29T00:06:11;99637.06;;;4.32;99.06
67931;BME280;63902;52.000;5.954;2022-09-29T00:07:12;99635.31;;;4.33;98.81
67931;BME280;63902;52.000;5.954;2022-09-29T00:08:12;99635.31;;;4.33;98.90
67931;BME280;63902;52.000;5.954;2022-09-29T00:09:13;99641.41;;;4.33;98.65
67931;BME280;63902;52.000;5.954;2022-09-29T00:10:14;99637.94;;;4.33;98.65
67931;BME280;63902;52.000;5.954;2022-09-29T00:11:16;99636.22;;;4.32;98.88
67931;BME280;63902;52.000;5.954;2022-09-29T00:12:17;99636.31;;;4.29;98.72
67931;BME280;63902;52.000;5.954;2022-09-29T00:13:18;99643.22;;;4.31;98.56
67931;BME280;63902;52.000;5.954;2022-09-29T00:14:18;99641.47;;;4.32;98.89
67931;BME280;63902;52.000;5.954;2022-09-29T00:15:19;99639.69;;;4.32;98.39
67931;BME280;63902;52.000;5.954;2022-09-29T00:16:19;99639.00;;;4.27;98.54
67931;BME280;63902;52.000;5.954;2022-09-29T00:17:20;99639.91;;;4.26;98.54
67931;BME280;63902;52.000;5.954;2022-09-29T00:18:22;99645.19;;;4.24;98.95
67931;BME280;63902;52.000;5.954;2022-09-29T00:19:23;99644.47;;;4.21;98.62
67931;BME280;63902;52.000;5.954;2022-09-29T00:20:23;99648.75;;;4.23;98.86
67931;BME280;63902;52.000;5.954;2022-09-29T00:21:23;99647.91;;;4.23;98.60
67931;BME280;63902;52.000;5.954;2022-09-29T00:22:24;99640.03;;;4.23;98.60
67931;BME280;63902;52.000;5.954;2022-09-29T00:23:24;99642.69;;;4.21;98.74
67931;BME280;63902;52.000;5.954;2022-09-29T00:24:25;99641.75;;;4.22;98.72
67931;BME280;63902;52.000;5.954;2022-09-29T00:25:26;99638.34;;;4.20;98.90
67931;BME280;63902;52.000;5.954;2022-09-29T00:26:27;99640.97;;;4.20;98.46
67931;BME280;63902;52.000;5.954;2022-09-29T00:27:27;99641.88;;;4.19;98.58
67931;BME280;63902;52.000;5.954;2022-09-29T00:28:28;99642.78;;;4.18;98.60
67931;BME280;63902;52.000;5.954;2022-09-29T00:29:29;99628.03;;;4.14;98.48
67931;BME280;63902;52.000;5.954;2022-09-29T00:30:29;99633.22;;;4.17;98.82
67931;BME280;63902;52.000;5.954;2022-09-29T00:31:31;99637.56;;;4.17;98.64
67931;BME280;63902;52.000;5.954;2022-09-29T00:32:32;99637.56;;;4.17;99.05
67931;BME280;63902;52.000;5.954;2022-09-29T00:33:35;99634.94;;;4.17;98.50
67931;BME280;63902;52.000;5.954;2022-09-29T00:34:36;99633.22;;;4.17;98.40
67931;BME280;63902;52.000;5.954;2022-09-29T00:35:37;99630.66;;;4.14;98.55
67931;BME280;63902;52.000;5.954;2022-09-29T00:36:37;99635.06;;;4.14;98.40
67931;BME280;63902;52.000;5.954;2022-09-29T00:37:38;99635.97;;;4.13;98.45
67931;BME280;63902;52.000;5.954;2022-09-29T00:38:41;99639.53;;;4.12;98.87
67931;BME280;63902;52.000;5.954;2022-09-29T00:39:41;99631.72;;;4.09;98.68
67931;BME280;63902;52.000;5.954;2022-09-29T00:40:42;99639.56;;;4.10;98.58
67931;BME280;63902;52.000;5.954;2022-09-29T00:41:42;99636.94;;;4.10;98.64
67931;BME280;63902;52.000;5.954;2022-09-29T00:42:43;99629.91;;;4.11;98.69
67931;BME280;63902;52.000;5.954;2022-09-29T00:43:48;99634.34;;;4.09;98.96
67931;BME280;63902;52.000;5.954;2022-09-29T00:44:54;99638.75;;;4.08;98.99
67931;BME280;63902;52.000;5.954;2022-09-29T00:45:56;99640.47;;;4.09;98.88
67931;BME280;63902;52.000;5.954;2022-09-29T00:47:00;99630.06;;;4.06;98.60
67931;BME280;63902;52.000;5.954;2022-09-29T00:48:05;99636.22;;;4.05;98.44
67931;BME280;63902;52.000;5.954;2022-09-29T00:49:13;99637.16;;;4.04;98.71
67931;BME280;63902;52.000;5.954;2022-09-29T00:50:19;99634.53;;;4.04;98.90
67931;BME280;63902;52.000;5.954;2022-09-29T00:51:23;99629.28;;;4.04;98.81
67931;BME280;63902;52.000;5.954;2022-09-29T00:52:28;99631.91;;;4.04;98.55
67931;BME280;63902;52.000;5.954;2022-09-29T00:53:32;99630.97;;;4.05;98.36
67931;BME280;63902;52.000;5.954;2022-09-29T00:54:35;99632.78;;;4.03;98.48
67931;BME280;63902;52.000;5.954;2022-09-29T00:55:41;99633.69;;;4.03;98.53
67931;BME280;63902;52.000;5.954;2022-09-29T00:56:43;99628.56;;;3.99;98.39
67931;BME280;63902;52.000;5.954;2022-09-29T00:57:47;99633.81;;;3.99;98.45
67931;BME280;63902;52.000;5.954;2022-09-29T00:58:53;99637.34;;;3.98;98.57
67931;BME280;63902;52.000;5.954;2022-09-29T00:59:58;99629.56;;;3.95;98.84
67931;BME280;63902;52.000;5.954;2022-09-29T01:01:00;99635.63;;;3.97;98.66
67931;BME280;63902;52.000;5.954;2022-09-29T01:02:01;99643.50;;;3.97;98.57
67931;BME280;63902;52.000;5.954;2022-09-29T01:03:05;99639.16;;;3.96;98.68
67931;BME280;63902;52.000;5.954;2022-09-29T01:04:11;99632.19;;;3.95;98.44
67931;BME280;63902;52.000;5.954;2022-09-29T01:05:15;99633.06;;;3.95;98.53
67931;BME280;63902;52.000;5.954;2022-09-29T01:06:21;99643.66;;;3.92;98.79
67931;BME280;63902;52.000;5.954;2022-09-29T01:07:23;99639.28;;;3.93;98.37
67931;BME280;63902;52.000;5.954;2022-09-29T01:08:28;99635.72;;;3.94;98.64
67931;BME280;63902;52.000;5.954;2022-09-29T01:09:34;99640.06;;;3.95;98.52
67931;BME280;63902;52.000;5.954;2022-09-29T01:10:37;99636.53;;;3.96;98.64
67931;BME280;63902;52.000;5.954;2022-09-29T01:11:38;99642.59;;;3.98;98.31
67931;BME280;63902;52.000;5.954;2022-09-29T01:12:39;99634.75;;;3.98;98.27
67931;BME280;63902;52.000;5.954;2022-09-29T01:13:39;99635.72;;;3.94;98.50
67931;BME280;63902;52.000;5.954;2022-09-29T01:14:40;99637.50;;;3.93;98.75
67931;BME280;63902;52.000;5.954;2022-09-29T01:15:41;99635.72;;;3.94;98.40
67931;BME280;63902;52.000;5.954;2022-09-29T01:16:41;99640.13;;;3.93;98.75
67931;BME280;63902;52.000;5.954;2022-09-29T01:17:42;99629.63;;;3.93;98.36
67931;BME280;63902;52.000;5.954;2022-09-29T01:18:43;99632.28;;;3.92;98.27
67931;BME280;63902;52.000;5.954;2022-09-29T01:19:51;99632.28;;;3.92;98.73
67931;BME280;63902;52.000;5.954;2022-09-29T01:21:05;99632.28;;;3.92;98.48
67931;BME280;63902;52.000;5.954;2022-09-29T01:22:13;99633.25;;;3.89;98.60
67931;BME280;63902;52.000;5.954;2022-09-29T01:23:55;99632.50;;;3.86;98.80
67931;BME280;63902;52.000;5.954;2022-09-29T01:25:25;99639.50;;;3.85;98.55
67931;BME280;63902;52.000;5.954;2022-09-29T01:27:03;99639.56;;;3.84;98.27
67931;BME280;63902;52.000;5.954;2022-09-29T01:28:20;99630.94;;;3.80;98.32
67931;BME280;63902;52.000;5.954;2022-09-29T01:29:47;99638.88;;;3.78;98.59
67931;BME280;63902;52.000;5.954;2022-09-29T01:31:03;99639.66;;;3.80;98.32
67931;BME280;63902;52.000;5.954;2022-09-29T01:32:14;99631.75;;;3.82;98.32
67931;BME280;63902;52.000;5.954;2022-09-29T01:33:29;99634.38;;;3.82;98.26
67931;BME280;63902;52.000;5.954;2022-09-29T01:34:38;99635.22;;;3.83;98.30
67931;BME280;63902;52.000;5.954;2022-09-29T01:35:50;99631.78;;;3.80;98.13
67931;BME280;63902;52.000;5.954;2022-09-29T01:36:57;99635.28;;;3.81;98.41
67931;BME280;63902;52.000;5.954;2022-09-29T01:38:10;99632.81;;;3.76;98.27
67931;BME280;63902;52.000;5.954;2022-09-29T01:39:18;99641.50;;;3.78;98.19
67931;BME280;63902;52.000;5.954;2022-09-29T01:40:26;99638.91;;;3.77;98.30
67931;BME280;63902;52.000;5.954;2022-09-29T01:41:35;99634.56;;;3.76;98.40
67931;BME280;63902;52.000;5.954;2022-09-29T01:42:49;99636.41;;;3.72;98.17
67931;BME280;63902;52.000;5.954;2022-09-29T01:43:54;99635.53;;;3.73;98.60
67931;BME280;63902;52.000;5.954;2022-09-29T01:45:04;99633.75;;;3.74;98.24
67931;BME280;63902;52.000;5.954;2022-09-29T01:46:12;99635.56;;;3.72;98.11
67931;BME280;63902;52.000;5.954;2022-09-29T01:47:19;99641.66;;;3.72;98.39
67931;BME280;63902;52.000;5.954;2022-09-29T01:48:24;99639.97;;;3.71;98.20
67931;BME280;63902;52.000;5.954;2022-09-29T01:49:30;99635.63;;;3.70;98.20
67931;BME280;63902;52.000;5.954;2022-09-29T01:50:35;99639.13;;;3.69;98.43
67931;BME280;63902;52.000;5.954;2022-09-29T01:51:41;99640.03;;;3.70;98.62
67931;BME280;63902;52.000;5.954;2022-09-29T01:52:45;99639.13;;;3.69;98.46
67931;BME280;63902;52.000;5.954;2022-09-29T01:53:48;99638.34;;;3.67;98.11
67931;BME280;63902;52.000;5.954;2022-09-29T01:54:54;99641.88;;;3.66;98.27
67931;BME280;63902;52.000;5.954;2022-09-29T01:56:01;99638.38;;;3.66;98.45
67931;BME280;63902;52.000;5.954;2022-09-29T01:57:07;99640.16;;;3.65;98.66
67931;BME280;63902;52.000;5.954;2022-09-29T01:58:14;99638.38;;;3.66;98.16
67931;BME280;63902;52.000;5.954;2022-09-29T01:59:20;99640.16;;;3.65;98.54
67931;BME280;63902;52.000;5.954;2022-09-29T02:00:22;99632.31;;;3.64;98.23
67931;BME280;63902;52.000;5.954;2022-09-29T02:01:30;99641.09;;;3.63;98.47
67931;BME280;63902;52.000;5.954;2022-09-29T02:02:35;99635.88;;;3.63;98.65
67931;BME280;63902;52.000;5.954;2022-09-29T02:03:40;99632.41;;;3.62;98.46
67931;BME280;63902;52.000;5.954;2022-09-29T02:04:46;99635.06;;;3.61;98.39
67931;BME280;63902;52.000;5.954;2022-09-29T02:05:51;99631.69;;;3.57;98.31
67931;BME280;63902;52.000;5.954;2022-09-29T02:06:54;99629.06;;;3.57;98.77
67931;BME280;63902;52.000;5.954;2022-09-29T02:08:01;99632.53;;;3.57;98.57
67931;BME280;63902;52.000;5.954;2022-09-29T02:09:09;99633.38;;;3.58;98.41
67931;BME280;63902;52.000;5.954;2022-09-29T02:10:15;99638.63;;;3.58;98.46
67931;BME280;63902;52.000;5.954;2022-09-29T02:11:17;99634.28;;;3.57;98.55
67931;BME280;63902;52.000;5.954;2022-09-29T02:12:22;99631.69;;;3.57;98.40
67931;BME280;63902;52.000;5.954;2022-09-29T02:13:24;99634.34;;;3.55;98.76
67931;BME280;63902;52.000;5.954;2022-09-29T02:14:28;99636.09;;;3.55;98.37
67931;BME280;63902;52.000;5.954;2022-09-29T02:15:34;99633.53;;;3.53;98.59
67931;BME280;63902;52.000;5.954;2022-09-29T02:16:41;99632.69;;;3.53;98.72
67931;BME280;63902;52.000;5.954;2022-09-29T02:17:44;99630.97;;;3.52;98.41
67931;BME280;63902;52.000;5.954;2022-09-29T02:18:50;99634.53;;;3.49;98.99
67931;BME280;63902;52.000;5.954;2022-09-29T02:19:52;99631.88;;;3.51;98.50
67931;BME280;63902;52.000;5.954;2022-09-29T02:20:53;99637.13;;;3.51;98.92
67931;BME280;63902;52.000;5.954;2022-09-29T02:21:54;99633.69;;;3.49;98.49
67931;BME280;63902;52.000;5.954;2022-09-29T02:22:54;99634.53;;;3.49;98.55
67931;BME280;63902;52.000;5.954;2022-09-29T02:23:55;99635.38;;;3.50;98.54
67931;BME280;63902;52.000;5.954;2022-09-29T02:24:57;99635.34;;;3.51;98.92
67931;BME280;63902;52.000;5.954;2022-09-29T02:25:59;99638.00;;;3.50;98.96
67931;BME280;63902;52.000;5.954;2022-09-29T02:27:00;99643.31;;;3.48;98.89
67931;BME280;63902;52.000;5.954;2022-09-29T02:28:01;99641.56;;;3.47;98.67
67931;BME280;63902;52.000;5.954;2022-09-29T02:29:03;99638.16;;;3.45;98.99
67931;BME280;63902;52.000;5.954;2022-09-29T02:30:05;99640.00;;;3.42;98.72
67931;BME280;63902;52.000;5.954;2022-09-29T02:31:05;99639.97;;;3.43;99.05
67931;BME280;63902;52.000;5.954;2022-09-29T02:32:07;99640.91;;;3.41;98.91
67931;BME280;63902;52.000;5.954;2022-09-29T02:33:17;99647.00;;;3.41;98.92
67931;BME280;63902;52.000;5.954;2022-09-29T02:34:19;99639.16;;;3.41;99.13
67931;BME280;63902;52.000;5.954;2022-09-29T02:35:20;99646.16;;;3.41;99.08
67931;BME280;63902;52.000;5.954;2022-09-29T02:36:28;99651.41;;;3.41;98.84
67931;BME280;63902;52.000;5.954;2022-09-29T02:37:38;99640.16;;;3.37;98.85
67931;BME280;63902;52.000;5.954;2022-09-29T02:38:42;99649.69;;;3.40;99.24
67931;BME280;63902;52.000;5.954;2022-09-29T02:39:52;99651.41;;;3.41;98.83
67931;BME280;63902;52.000;5.954;2022-09-29T02:41:04;99641.88;;;3.38;98.92
67931;BME280;63902;52.000;5.954;2022-09-29T02:42:16;99651.41;;;3.41;99.13
67931;BME280;63902;52.000;5.954;2022-09-29T02:44:55;99644.56;;;3.36;98.95
67931;BME280;63902;52.000;5.954;2022-09-29T02:46:07;99647.16;;;3.36;98.59
67931;BME280;63902;52.000;5.954;2022-09-29T02:47:40;99639.41;;;3.33;98.72
67931;BME280;63902;52.000;5.954;2022-09-29T02:48:58;99635.97;;;3.31;98.64
67931;BME280;63902;52.000;5.954;2022-09-29T02:51:36;99640.34;;;3.31;98.64
67931;BME280;63902;52.000;5.954;2022-09-29T02:52:45;99638.63;;;3.30;98.87
67931;BME280;63902;52.000;5.954;2022-09-29T02:53:58;99642.09;;;3.30;98.61
67931;BME280;63902;52.000;5.954;2022-09-29T02:55:07;99636.91;;;3.29;98.75
67931;BME280;63902;52.000;5.954;2022-09-29T02:56:15;99636.16;;;3.25;98.70
67931;BME280;63902;52.000;5.954;2022-09-29T02:57:25;99632.63;;;3.26;98.66
67931;BME280;63902;52.000;5.954;2022-09-29T02:58:31;99637.84;;;3.26;98.99
67931;BME280;63902;52.000;5.954;2022-09-29T02:59:39;99641.34;;;3.27;98.94
67931;BME280;63902;52.000;5.954;2022-09-29T03:00:42;99633.53;;;3.25;98.97
67931;BME280;63902;52.000;5.954;2022-09-29T03:01:48;99647.50;;;3.26;99.11
67931;BME280;63902;52.000;5.954;2022-09-29T03:02:50;99649.25;;;3.25;98.75
67931;BME280;63902;52.000;5.954;2022-09-29T03:03:51;99641.41;;;3.25;98.59
67931;BME280;63902;52.000;5.954;2022-09-29T03:04:51;99642.25;;;3.26;98.89
67931;BME280;63902;52.000;5.954;2022-09-29T03:05:52;99642.25;;;3.26;98.54
67931;BME280;63902;52.000;5.954;2022-09-29T03:06:53;99642.28;;;3.24;98.87
67931;BME280;63902;52.000;5.954;2022-09-29T03:07:54;99644.91;;;3.24;98.81
67931;BME280;63902;52.000;5.954;2022-09-29T03:08:54;99645.84;;;3.22;98.60
67931;BME280;63902;52.000;5.954;2022-09-29T03:09:55;99642.28;;;3.24;99.01
67931;BME280;63902;52.000;5.954;2022-09-29T03:10:55;99643.09;;;3.26;98.96
67931;BME280;63902;52.000;5.954;2022-09-29T03:11:55;99642.25;;;3.26;98.39
67931;BME280;63902;52.000;5.954;2022-09-29T03:12:56;99643.13;;;3.25;98.85
67931;BME280;63902;52.000;5.954;2022-09-29T03:13:57;99644.06;;;3.24;98.69
67931;BME280;63902;52.000;5.954;2022-09-29T03:14:57;99638.88;;;3.22;98.48
67931;BME280;63902;52.000;5.954;2022-09-29T03:15:57;99644.13;;;3.22;98.84
67931;BME280;63902;52.000;5.954;2022-09-29T03:16:58;99645.81;;;3.23;98.54
67931;BME280;63902;52.000;5.954;2022-09-29T03:18:00;99642.34;;;3.23;98.72
67931;BME280;63902;52.000;5.954;2022-09-29T03:19:00;99637.19;;;3.20;98.65
67931;BME280;63902;52.000;5.954;2022-09-29T03:20:01;99631.97;;;3.20;99.07
67931;BME280;63902;52.000;5.954;2022-09-29T03:21:01;99647.72;;;3.18;98.85
67931;BME280;63902;52.000;5.954;2022-09-29T03:22:02;99643.41;;;3.16;99.04
67931;BME280;63902;52.000;5.954;2022-09-29T03:23:02;99641.66;;;3.16;99.14
67931;BME280;63902;52.000;5.954;2022-09-29T03:24:03;99635.63;;;3.14;98.83
67931;BME280;63902;52.000;5.954;2022-09-29T03:25:04;99642.53;;;3.17;99.28
67931;BME280;63902;52.000;5.954;2022-09-29T03:26:05;99639.94;;;3.15;99.08
67931;BME280;63902;52.000;5.954;2022-09-29T03:27:05;99638.25;;;3.14;99.08
67931;BME280;63902;52.000;5.954;2022-09-29T03:28:06;99644.34;;;3.14;98.95
67931;BME280;63902;52.000;5.954;2022-09-29T03:29:07;99628.75;;;3.10;99.13
67931;BME280;63902;52.000;5.954;2022-09-29T03:30:08;99640.03;;;3.12;99.08
67931;BME280;63902;52.000;5.954;2022-09-29T03:31:09;99638.34;;;3.11;98.88
67931;BME280;63902;52.000;5.954;2022-09-29T03:32:10;99641.84;;;3.10;98.99
67931;BME280;63902;52.000;5.954;2022-09-29T03:33:11;99641.91;;;3.08;99.37
67931;BME280;63902;52.000;5.954;2022-09-29T03:34:12;99645.41;;;3.07;99.18
67931;BME280;63902;52.000;5.954;2022-09-29T03:35:12;99638.47;;;3.06;98.97
67931;BME280;63902;52.000;5.954;2022-09-29T03:36:13;99636.69;;;3.07;99.39
67931;BME280;63902;52.000;5.954;2022-09-29T03:37:13;99634.91;;;3.09;98.97
67931;BME280;63902;52.000;5.954;2022-09-29T03:38:14;99640.13;;;3.09;99.40
67931;BME280;63902;52.000;5.954;2022-09-29T03:39:14;99641.81;;;3.11;99.48
67931;BME280;63902;52.000;5.954;2022-09-29T03:40:15;99643.50;;;3.12;99.30
67931;BME280;63902;52.000;5.954;2022-09-29T03:41:15;99640.84;;;3.14;98.93
67931;BME280;63902;52.000;5.954;2022-09-29T03:42:16;99641.66;;;3.16;98.80
67931;BME280;63902;52.000;5.954;2022-09-29T03:43:16;99646.03;;;3.16;98.99
67931;BME280;63902;52.000;5.954;2022-09-29T03:44:17;99646.09;;;3.14;99.23
67931;BME280;63902;52.000;5.954;2022-09-29T03:45:17;99652.22;;;3.13;98.82
67931;BME280;63902;52.000;5.954;2022-09-29T03:46:18;99644.38;;;3.13;99.19
67931;BME280;63902;52.000;5.954;2022-09-29T03:47:18;99649.56;;;3.14;98.84
67931;BME280;63902;52.000;5.954;2022-09-29T03:48:21;99648.72;;;3.14;98.83
67931;BME280;63902;52.000;5.954;2022-09-29T03:49:22;99646.97;;;3.13;99.04
67931;BME280;63902;52.000;5.954;2022-09-29T03:50:23;99649.59;;;3.13;98.91
67931;BME280;63902;52.000;5.954;2022-09-29T03:51:23;99656.59;;;3.14;98.99
67931;BME280;63902;52.000;5.954;2022-09-29T03:52:24;99650.41;;;3.17;98.96
67931;BME280;63902;52.000;5.954;2022-09-29T03:53:24;99646.88;;;3.16;99.01
67931;BME280;63902;52.000;5.954;2022-09-29T03:54:25;99653.88;;;3.17;99.06
67931;BME280;63902;52.000;5.954;2022-09-29T03:55:25;99652.91;;;3.20;98.71
67931;BME280;63902;52.000;5.954;2022-09-29T03:56:25;99651.19;;;3.19;98.64
67931;BME280;63902;52.000;5.954;2022-09-29T03:57:26;99646.84;;;3.18;98.99
67931;BME280;63902;52.000;5.954;2022-09-29T03:58:27;99646.84;;;3.18;98.90
67931;BME280;63902;52.000;5.954;2022-09-29T03:59:27;99646.03;;;3.16;98.88
67931;BME280;63902;52.000;5.954;2022-09-29T04:00:28;99654.81;;;3.14;99.08
67931;BME280;63902;52.000;5.954;2022-09-29T04:01:28;99645.28;;;3.12;99.11
67931;BME280;63902;52.000;5.954;2022-09-29T04:02:28;99650.53;;;3.12;99.21
67931;BME280;63902;52.000;5.954;2022-09-29T04:03:30;99650.53;;;3.10;99.12
67931;BME280;63902;52.000;5.954;2022-09-29T04:04:31;99653.16;;;3.10;99.18
67931;BME280;63902;52.000;5.954;2022-09-29T04:05:31;99657.56;;;3.10;99.16
67931;BME280;63902;52.000;5.954;2022-09-29T04:06:32;99655.88;;;3.07;99.16
67931;BME280;63902;52.000;5.954;2022-09-29T04:07:32;99658.56;;;3.06;98.96
67931;BME280;63902;52.000;5.954;2022-09-29T04:08:34;99656.72;;;3.08;99.26
67931;BME280;63902;52.000;5.954;2022-09-29T04:09:35;99661.13;;;3.07;99.47
67931;BME280;63902;52.000;5.954;2022-09-29T04:10:36;99661.09;;;3.09;99.08
67931;BME280;63902;52.000;5.954;2022-09-29T04:11:37;99657.56;;;3.10;98.94
67931;BME280;63902;52.000;5.954;2022-09-29T04:12:37;99661.91;;;3.11;99.02
67931;BME280;63902;52.000;5.954;2022-09-29T04:13:38;99657.66;;;3.07;99.30
67931;BME280;63902;52.000;5.954;2022-09-29T04:14:38;99660.19;;;3.10;98.85
67931;BME280;63902;52.000;5.954;2022-09-29T04:15:39;99661.00;;;3.12;99.22
67931;BME280;63902;52.000;5.954;2022-09-29T04:16:39;99669.78;;;3.11;98.94
67931;BME280;63902;52.000;5.954;2022-09-29T04:17:39;99668.03;;;3.10;99.14
67931;BME280;63902;52.000;5.954;2022-09-29T04:18:41;99668.13;;;3.07;98.91
67931;BME280;63902;52.000;5.954;2022-09-29T04:19:42;99674.38;;;3.03;99.20
67931;BME280;63902;52.000;5.954;2022-09-29T04:20:42;99674.47;;;3.00;99.40
67931;BME280;63902;52.000;5.954;2022-09-29T04:21:42;99684.03;;;3.01;99.14
67931;BME280;63902;52.000;5.954;2022-09-29T04:22:43;99681.41;;;3.01;99.56
67931;BME280;63902;52.000;5.954;2022-09-29T04:23:43;99679.69;;;3.00;99.34
67931;BME280;63902;52.000;5.954;2022-09-29T04:24:44;99686.66;;;3.01;99.42
67931;BME280;63902;52.000;5.954;2022-09-29T04:25:45;99683.09;;;3.03;99.29
67931;BME280;63902;52.000;5.954;2022-09-29T04:26:45;99672.59;;;3.03;99.49
67931;BME280;63902;52.000;5.954;2022-09-29T04:27:46;99683.97;;;3.02;99.19
67931;BME280;63902;52.000;5.954;2022-09-29T04:28:46;99683.19;;;3.00;99.32
67931;BME280;63902;52.000;5.954;2022-09-29T04:29:47;99684.94;;;3.00;99.60
67931;BME280;63902;52.000;5.954;2022-09-29T04:30:47;99691.06;;;2.99;99.24
67931;BME280;63902;52.000;5.954;2022-09-29T04:31:47;99682.31;;;3.00;99.61
67931;BME280;63902;52.000;5.954;2022-09-29T04:32:48;99687.47;;;3.03;99.49
67931;BME280;63902;52.000;5.954;2022-09-29T04:33:50;99681.28;;;3.05;99.61
67931;BME280;63902;52.000;5.954;2022-09-29T04:34:50;99690.88;;;3.05;99.22
67931;BME280;63902;52.000;5.954;2022-09-29T04:35:51;99685.69;;;3.03;99.44
67931;BME280;63902;52.000;5.954;2022-09-29T04:36:51;99688.31;;;3.03;99.49
67931;BME280;63902;52.000;5.954;2022-09-29T04:37:53;99694.41;;;3.04;99.47
67931;BME280;63902;52.000;5.954;2022-09-29T04:38:54;99690.03;;;3.04;99.07
67931;BME280;63902;52.000;5.954;2022-09-29T04:39:54;99688.31;;;3.03;99.30
67931;BME280;63902;52.000;5.954;2022-09-29T04:40:54;99691.78;;;3.04;99.19
67931;BME280;63902;52.000;5.954;2022-09-29T04:41:55;99689.09;;;3.07;99.44
67931;BME280;63902;52.000;5.954;2022-09-29T04:42:55;99686.47;;;3.07;99.33
67931;BME280;63902;52.000;5.954;2022-09-29T04:43:56;99693.47;;;3.06;99.36
67931;BME280;63902;52.000;5.954;2022-09-29T04:44:56;99694.28;;;3.08;99.37
67931;BME280;63902;52.000;5.954;2022-09-29T04:46:01;99696.03;;;3.08;98.97
67931;BME280;63902;52.000;5.954;2022-09-29T04:47:01;99689.94;;;3.07;98.99
67931;BME280;63902;52.000;5.954;2022-09-29T04:48:02;99687.19;;;3.12;99.18
67931;BME280;63902;52.000;5.954;2022-09-29T04:49:04;99693.25;;;3.14;98.96
67931;BME280;63902;52.000;5.954;2022-09-29T04:50:05;99693.25;;;3.14;98.70
67931;BME280;63902;52.000;5.954;2022-09-29T04:51:06;99691.50;;;3.14;99.17
67931;BME280;63902;52.000;5.954;2022-09-29T04:52:06;99687.13;;;3.13;99.18
67931;BME280;63902;52.000;5.954;2022-09-29T04:53:08;99689.69;;;3.17;99.04
67931;BME280;63902;52.000;5.954;2022-09-29T04:54:09;99692.25;;;3.18;98.85
67931;BME280;63902;52.000;5.954;2022-09-29T04:55:10;99692.25;;;3.18;99.18
67931;BME280;63902;52.000;5.954;2022-09-29T04:56:10;99691.34;;;3.19;99.09
67931;BME280;63902;52.000;5.954;2022-09-29T04:57:11;99693.06;;;3.20;98.85
67931;BME280;63902;52.000;5.954;2022-09-29T04:58:11;99692.06;;;3.24;98.74
67931;BME280;63902;52.000;5.954;2022-09-29T04:59:12;99701.69;;;3.24;99.05
67931;BME280;63902;52.000;5.954;2022-09-29T05:00:13;99697.31;;;3.24;99.22
67931;BME280;63902;52.000;5.954;2022-09-29T05:01:13;99696.47;;;3.24;99.13
67931;BME280;63902;52.000;5.954;2022-09-29T05:02:14;99699.03;;;3.25;98.95
67931;BME280;63902;52.000;5.954;2022-09-29T05:03:14;99705.91;;;3.29;99.19
67931;BME280;63902;52.000;5.954;2022-09-29T05:04:16;99701.50;;;3.30;98.67
67931;BME280;63902;52.000;5.954;2022-09-29T05:05:17;99703.19;;;3.32;98.64
67931;BME280;63902;52.000;5.954;2022-09-29T05:06:17;99695.28;;;3.34;98.62
67931;BME280;63902;52.000;5.954;2022-09-29T05:07:18;99704.00;;;3.34;98.76
67931;BME280;63902;52.000;5.954;2022-09-29T05:08:18;99707.34;;;3.40;98.64
67931;BME280;63902;52.000;5.954;2022-09-29T05:09:19;99711.69;;;3.41;98.74
67931;BME280;63902;52.000;5.954;2022-09-29T05:10:19;99709.06;;;3.41;98.72
67931;BME280;63902;52.000;5.954;2022-09-29T05:11:20;99702.91;;;3.42;98.57
67931;BME280;63902;52.000;5.954;2022-09-29T05:12:20;99704.66;;;3.43;98.61
67931;BME280;63902;52.000;5.954;2022-09-29T05:13:21;99706.34;;;3.44;98.99
67931;BME280;63902;52.000;5.954;2022-09-29T05:14:22;99702.06;;;3.41;98.53
67931;BME280;63902;52.000;5.954;2022-09-29T05:15:23;99710.88;;;3.39;98.56
67931;BME280;63902;52.000;5.954;2022-09-29T05:16:23;99708.34;;;3.35;98.68
67931;BME280;63902;52.000;5.954;2022-09-29T05:17:24;99712.78;;;3.33;99.08
67931;BME280;63902;52.000;5.954;2022-09-29T05:18:24;99710.16;;;3.33;99.23
67931;BME280;63902;52.000;5.954;2022-09-29T05:19:26;99713.63;;;3.34;99.29
67931;BME280;63902;52.000;5.954;2022-09-29T05:20:26;99715.31;;;3.36;99.04
67931;BME280;63902;52.000;5.954;2022-09-29T05:21:27;99712.63;;;3.38;99.16
67931;BME280;63902;52.000;5.954;2022-09-29T05:22:27;99719.66;;;3.38;99.36
67931;BME280;63902;52.000;5.954;2022-09-29T05:23:28;99714.31;;;3.41;99.05
67931;BME280;63902;52.000;5.954;2022-09-29T05:24:28;99720.41;;;3.41;98.94
67931;BME280;63902;52.000;5.954;2022-09-29T05:25:29;99720.31;;;3.44;99.05
67931;BME280;63902;52.000;5.954;2022-09-29T05:26:29;99718.56;;;3.45;98.98
67931;BME280;63902;52.000;5.954;2022-09-29T05:27:29;99716.00;;;3.42;99.02
67931;BME280;63902;52.000;5.954;2022-09-29T05:28:30;99717.84;;;3.40;99.26
67931;BME280;63902;52.000;5.954;2022-09-29T05:29:31;99719.66;;;3.38;99.37
67931;BME280;63902;52.000;5.954;2022-09-29T05:30:31;99715.25;;;3.38;99.33
67931;BME280;63902;52.000;5.954;2022-09-29T05:31:32;99718.78;;;3.37;99.17
67931;BME280;63902;52.000;5.954;2022-09-29T05:32:32;99718.72;;;3.39;99.66
67931;BME280;63902;52.000;5.954;2022-09-29T05:33:33;99717.84;;;3.40;99.56
67931;BME280;63902;52.000;5.954;2022-09-29T05:34:35;99725.47;;;3.47;99.62
67931;BME280;63902;52.000;5.954;2022-09-29T05:35:35;99723.66;;;3.49;99.27
67931;BME280;63902;52.000;5.954;2022-09-29T05:36:37;99732.44;;;3.48;98.91
67931;BME280;63902;52.000;5.954;2022-09-29T05:37:37;99729.84;;;3.47;99.14
67931;BME280;63902;52.000;5.954;2022-09-29T05:38:38;99727.19;;;3.48;99.15
67931;BME280;63902;52.000;5.954;2022-09-29T05:39:39;99726.25;;;3.51;99.57
67931;BME280;63902;52.000;5.954;2022-09-29T05:40:39;99721.03;;;3.49;99.53